Time;durP1;ratioP1;P1;durP2;ratioP2;P2;SDS_P1;SDS_P2;PMS_P1;PMS_P2;Temp;Humidity;BMP_temperature;BMP_pressure;BME280_temperature;BME280_humidity;BME280_pressure;Samples;Min_cycle;Max_cycle;Signal;HPM_P1;HPM_P2
2022/06/07 00:02:19;;;;;;;0.98;0.82;;;;;;;;;;5035962;28;20052;-85
2022/06/07 00:04:45;;;;;;;0.75;0.75;;;;;;;;;;5036869;28;20025;-84
2022/06/07 00:07:10;;;;;;;0.85;0.80;;;;;;;;;;5034963;28;20539;-84
2022/06/07 00:09:36;;;;;;;1.48;1.05;;;;;;;;;;5035530;28;20037;-84
2022/06/07 00:12:02;;;;;;;1.10;1.00;;;;;;;;;;5050570;28;20067;-84
2022/06/07 00:14:28;;;;;;;0.98;0.80;;;;;;;;;;5035439;28;20037;-84
2022/06/07 00:16:54;;;;;;;1.00;0.90;;;;;;;;;;5034922;28;20494;-85
2022/06/07 00:19:20;;;;;;;1.42;0.90;;;;;;;;;;5033843;28;20420;-85
2022/06/07 00:21:46;;;;;;;0.95;0.80;;;;;;;;;;5018307;28;20128;-85
2022/06/07 00:24:12;;;;;;;1.83;0.95;;;;;;;;;;5000839;28;20057;-84
2022/06/07 00:26:38;;;;;;;6.07;1.00;;;;;;;;;;5035047;28;20025;-84
2022/06/07 00:29:04;;;;;;;0.95;0.90;;;;;;;;;;5018950;28;20039;-84
2022/06/07 00:31:29;;;;;;;1.83;1.00;;;;;;;;;;5016958;28;20029;-84
2022/06/07 00:33:55;;;;;;;0.90;0.90;;;;;;;;;;5034046;28;20034;-84
2022/06/07 00:36:21;;;;;;;6.03;1.13;;;;;;;;;;5033332;28;20081;-84
2022/06/07 00:38:46;;;;;;;5.82;1.20;;;;;;;;;;5033485;28;20474;-84
2022/06/07 00:41:12;;;;;;;1.90;1.17;;;;;;;;;;5033455;28;20148;-84
2022/06/07 00:43:37;;;;;;;1.35;0.90;;;;;;;;;;5033370;28;20044;-84
2022/06/07 00:46:07;;;;;;;1.65;1.00;;;;;;;;;;5033347;28;20030;-84
2022/06/07 00:48:33;;;;;;;1.38;0.98;;;;;;;;;;5033124;28;20025;-84
2022/06/07 00:51:10;;;;;;;1.10;1.00;;;;;;;;;;5034591;28;20385;-84
2022/06/07 00:53:36;;;;;;;1.92;1.00;;;;;;;;;;5033243;28;20029;-84
2022/06/07 00:56:03;;;;;;;1.17;1.08;;;;;;;;;;5032974;28;20172;-85
2022/06/07 00:58:30;;;;;;;2.97;0.93;;;;;;;;;;5033445;28;20025;-84
2022/06/07 01:00:57;;;;;;;1.35;1.05;;;;;;;;;;5033016;28;20052;-84
2022/06/07 01:03:22;;;;;;;1.25;1.00;;;;;;;;;;5016643;28;20036;-84
2022/06/07 01:05:49;;;;;;;1.80;1.02;;;;;;;;;;5016631;28;20021;-85
2022/06/07 01:10:58;;;;;;;;;;;;;;;;;;5034612;28;20091;-86
2022/06/07 01:13:30;;;;;;;1.67;1.00;;;;;;;;;;5034131;28;19953;-85
2022/06/07 01:16:01;;;;;;;0.90;0.90;;;;;;;;;;5032743;28;20049;-84
2022/06/07 01:18:28;;;;;;;3.95;1.10;;;;;;;;;;5032885;28;20041;-85
2022/06/07 01:21:16;;;;;;;1.00;0.90;;;;;;;;;;5033115;28;20041;-85
2022/06/07 01:23:43;;;;;;;1.30;1.17;;;;;;;;;;5016012;28;20032;-85
2022/06/07 01:26:10;;;;;;;1.20;1.05;;;;;;;;;;5017215;28;20472;-85
2022/06/07 01:28:36;;;;;;;2.60;1.20;;;;;;;;;;5032528;28;20065;-85
2022/06/07 01:31:01;;;;;;;1.38;1.23;;;;;;;;;;5034184;28;20021;-85
2022/06/07 01:33:27;;;;;;;1.08;0.98;;;;;;;;;;5034253;28;20087;-86
2022/06/07 01:36:08;;;;;;;1.30;1.20;;;;;;;;;;5034042;28;20493;-85
2022/06/07 01:38:36;;;;;;;1.10;1.00;;;;;;;;;;5032314;28;20018;-85
2022/06/07 01:43:46;;;;;;;1.60;1.33;;;;;;;;;;5032532;28;20047;-84
2022/06/07 01:46:11;;;;;;;1.08;1.00;;;;;;;;;;5035393;28;20037;-84
2022/06/07 01:48:37;;;;;;;1.48;1.10;;;;;;;;;;4999554;28;20030;-84
2022/06/07 01:51:05;;;;;;;2.10;1.17;;;;;;;;;;5015514;28;20112;-83
2022/06/07 01:53:30;;;;;;;1.23;1.13;;;;;;;;;;5015623;28;20075;-84
2022/06/07 01:56:11;;;;;;;2.00;1.00;;;;;;;;;;5015496;28;20037;-84
2022/06/07 01:58:38;;;;;;;1.17;1.10;;;;;;;;;;5032494;28;20492;-84
2022/06/07 02:01:03;;;;;;;0.90;0.90;;;;;;;;;;5015681;28;20163;-84
2022/06/07 02:03:29;;;;;;;1.10;1.00;;;;;;;;;;5033713;28;20036;-84
2022/06/07 02:05:57;;;;;;;2.10;1.23;;;;;;;;;;5032114;28;20036;-85
2022/06/07 02:08:22;;;;;;;1.30;1.20;;;;;;;;;;5031606;28;20057;-85
2022/06/07 02:10:47;;;;;;;1.05;1.05;;;;;;;;;;5015238;28;20173;-85
2022/06/07 02:13:13;;;;;;;1.08;1.00;;;;;;;;;;5015228;28;20029;-84
2022/06/07 02:15:38;;;;;;;1.00;1.00;;;;;;;;;;5031753;28;20057;-84
2022/06/07 02:18:03;;;;;;;1.20;1.10;;;;;;;;;;5015438;28;20029;-84
2022/06/07 02:20:29;;;;;;;1.30;1.20;;;;;;;;;;5032114;28;20112;-84
2022/06/07 02:22:54;;;;;;;2.60;1.00;;;;;;;;;;5032911;28;20194;-84
2022/06/07 02:25:20;;;;;;;1.45;1.27;;;;;;;;;;5033022;28;20029;-84
2022/06/07 02:27:45;;;;;;;2.13;1.13;;;;;;;;;;5031693;28;20044;-84
2022/06/07 02:30:11;;;;;;;1.10;1.10;;;;;;;;;;5015278;28;20083;-84
2022/06/07 02:32:37;;;;;;;2.33;1.20;;;;;;;;;;5031628;28;20366;-84
2022/06/07 02:35:04;;;;;;;1.50;1.20;;;;;;;;;;5032268;28;20109;-84
2022/06/07 02:37:31;;;;;;;1.90;1.13;;;;;;;;;;5048919;28;20030;-85
2022/06/07 02:39:57;;;;;;;2.22;1.30;;;;;;;;;;5015201;28;20473;-85
2022/06/07 02:42:25;;;;;;;1.30;1.20;;;;;;;;;;5033129;28;20033;-85
2022/06/07 02:44:50;;;;;;;1.98;1.25;;;;;;;;;;5032160;28;20040;-85
2022/06/07 02:47:17;;;;;;;2.40;1.20;;;;;;;;;;5032820;28;20037;-85
2022/06/07 02:49:42;;;;;;;1.95;1.17;;;;;;;;;;5031299;28;20120;-85
2022/06/07 02:52:08;;;;;;;1.25;1.15;;;;;;;;;;5031652;28;20159;-86
2022/06/07 02:54:34;;;;;;;2.72;1.30;;;;;;;;;;5015527;28;20087;-85
2022/06/07 02:56:59;;;;;;;1.45;1.35;;;;;;;;;;5032875;28;20418;-84
2022/06/07 02:59:24;;;;;;;1.83;1.23;;;;;;;;;;5031875;28;20037;-84
2022/06/07 03:01:50;;;;;;;2.00;1.20;;;;;;;;;;5032879;28;20056;-84
2022/06/07 03:04:15;;;;;;;1.30;1.20;;;;;;;;;;5032871;28;20033;-84
2022/06/07 03:06:41;;;;;;;1.30;1.20;;;;;;;;;;5031869;28;20033;-84
2022/06/07 03:09:06;;;;;;;1.38;1.27;;;;;;;;;;5031319;28;20033;-85
2022/06/07 03:11:32;;;;;;;3.70;1.20;;;;;;;;;;5014679;28;20407;-84
2022/06/07 03:13:57;;;;;;;1.48;1.27;;;;;;;;;;5014609;28;20037;-84
2022/06/07 03:16:22;;;;;;;1.35;1.23;;;;;;;;;;5030996;28;20049;-84
2022/06/07 03:18:48;;;;;;;1.42;1.33;;;;;;;;;;5015989;28;20030;-84
2022/06/07 03:21:14;;;;;;;1.75;1.20;;;;;;;;;;5034729;28;20037;-85
2022/06/07 03:23:39;;;;;;;1.40;1.30;;;;;;;;;;5034744;28;20029;-85
2022/06/07 03:26:06;;;;;;;1.40;1.30;;;;;;;;;;5018269;28;20040;-85
2022/06/07 03:28:32;;;;;;;1.50;1.40;;;;;;;;;;5001960;28;20034;-84
2022/06/07 03:31:12;;;;;;;1.30;1.20;;;;;;;;;;5036220;28;20036;-84
2022/06/07 03:33:38;;;;;;;1.27;1.20;;;;;;;;;;5034615;28;20025;-84
2022/06/07 03:36:05;;;;;;;1.13;1.08;;;;;;;;;;5034698;28;20036;-84
2022/06/07 03:38:31;;;;;;;1.23;1.17;;;;;;;;;;5034733;28;20022;-84
2022/06/07 03:40:56;;;;;;;2.17;1.40;;;;;;;;;;5034384;28;20041;-84
2022/06/07 03:43:21;;;;;;;1.90;1.60;;;;;;;;;;5034281;28;20037;-84
2022/06/07 03:45:47;;;;;;;1.30;1.20;;;;;;;;;;5017655;28;20025;-84
2022/06/07 03:48:12;;;;;;;1.77;1.52;;;;;;;;;;5034286;28;20036;-84
2022/06/07 03:50:39;;;;;;;1.77;1.67;;;;;;;;;;5034374;28;20025;-84
2022/06/07 03:53:04;;;;;;;1.42;1.17;;;;;;;;;;5034323;28;20048;-84
2022/06/07 03:55:30;;;;;;;1.35;1.25;;;;;;;;;;5034372;28;20104;-86
2022/06/07 03:57:55;;;;;;;2.35;1.40;;;;;;;;;;5035335;28;20076;-85
2022/06/07 04:00:21;;;;;;;3.53;1.40;;;;;;;;;;5017543;28;20052;-87
2022/06/07 04:02:46;;;;;;;2.13;1.25;;;;;;;;;;5035412;28;20029;-85
2022/06/07 04:05:12;;;;;;;1.60;1.50;;;;;;;;;;5035086;28;20021;-88
2022/06/07 04:10:21;;;;;;;1.77;1.13;;;;;;;;;;5035765;28;20087;-90
2022/06/07 04:12:46;;;;;;;5.10;1.60;;;;;;;;;;5036637;28;20037;-90
2022/06/07 04:15:15;;;;;;;2.65;1.50;;;;;;;;;;5035921;28;20494;-89
2022/06/07 04:17:40;;;;;;;3.10;1.33;;;;;;;;;;5019360;28;20068;-89
2022/06/07 04:20:06;;;;;;;2.47;1.40;;;;;;;;;;5020027;28;20034;-89
2022/06/07 04:22:31;;;;;;;1.90;1.33;;;;;;;;;;5034366;28;20049;-91
2022/06/07 04:24:57;;;;;;;2.53;1.70;;;;;;;;;;5020370;28;20552;-91
2022/06/07 04:27:23;;;;;;;3.13;2.20;;;;;;;;;;5017994;28;20033;-88
2022/06/07 04:29:48;;;;;;;4.93;2.33;;;;;;;;;;5035401;28;20037;-89
2022/06/07 04:32:16;;;;;;;10.60;3.05;;;;;;;;;;5034661;28;20433;-87
2022/06/07 04:34:42;;;;;;;7.97;2.70;;;;;;;;;;5037318;28;20490;-87
2022/06/07 04:37:07;;;;;;;10.45;2.78;;;;;;;;;;5001893;28;20032;-85
2022/06/07 04:39:32;;;;;;;6.65;2.70;;;;;;;;;;5035527;28;20025;-86
2022/06/07 04:41:58;;;;;;;7.55;2.28;;;;;;;;;;5036010;28;20049;-86
2022/06/07 04:44:23;;;;;;;5.95;2.65;;;;;;;;;;5037264;28;20414;-88
2022/06/07 04:46:49;;;;;;;5.20;2.35;;;;;;;;;;5025813;28;20104;-83
2022/06/07 04:49:14;;;;;;;2.67;2.10;;;;;;;;;;5042422;28;20040;-88
2022/06/07 04:51:40;;;;;;;4.75;2.10;;;;;;;;;;5045202;28;20029;-86
2022/06/07 04:54:05;;;;;;;5.00;2.55;;;;;;;;;;5043008;28;20096;-86
2022/06/07 04:56:33;;;;;;;9.38;3.17;;;;;;;;;;5038717;28;20036;-88
2022/06/07 04:59:00;;;;;;;10.63;2.80;;;;;;;;;;5021351;28;20034;-85
2022/06/07 05:01:28;;;;;;;6.75;2.90;;;;;;;;;;5039584;28;20401;-88
2022/06/07 05:03:53;;;;;;;4.53;2.50;;;;;;;;;;5044255;28;20025;-87
2022/06/07 05:06:21;;;;;;;3.10;2.42;;;;;;;;;;5044507;28;20049;-88
2022/06/07 05:08:47;;;;;;;9.93;2.60;;;;;;;;;;5046829;28;20016;-87
2022/06/07 05:11:13;;;;;;;5.00;2.47;;;;;;;;;;5051004;28;20112;-90
2022/06/07 05:13:38;;;;;;;5.85;2.30;;;;;;;;;;5042112;28;20033;-88
2022/06/07 05:16:05;;;;;;;7.57;2.80;;;;;;;;;;5036314;28;20053;-86
2022/06/07 05:18:30;;;;;;;7.43;2.35;;;;;;;;;;5020736;28;20421;-87
2022/06/07 05:20:56;;;;;;;6.70;2.17;;;;;;;;;;5036407;28;20025;-86
2022/06/07 05:23:21;;;;;;;7.65;2.20;;;;;;;;;;5036977;28;20072;-86
2022/06/07 05:25:58;;;;;;;2.58;1.70;;;;;;;;;;5036931;28;20049;-87
2022/06/07 05:28:24;;;;;;;3.42;2.10;;;;;;;;;;5052228;28;20493;-87
2022/06/07 05:30:49;;;;;;;5.60;2.50;;;;;;;;;;5035824;28;20108;-87
2022/06/07 05:33:15;;;;;;;2.42;1.90;;;;;;;;;;5036076;28;20033;-87
2022/06/07 05:35:40;;;;;;;4.05;1.92;;;;;;;;;;5036030;28;20437;-87
2022/06/07 05:38:06;;;;;;;4.72;2.10;;;;;;;;;;5020616;28;20124;-87
2022/06/07 05:40:31;;;;;;;2.83;1.80;;;;;;;;;;5037113;28;20048;-88
2022/06/07 05:42:57;;;;;;;3.60;2.10;;;;;;;;;;5038063;28;20029;-88
2022/06/07 05:45:22;;;;;;;3.03;1.73;;;;;;;;;;5037074;28;20529;-89
2022/06/07 05:47:48;;;;;;;2.75;1.73;;;;;;;;;;5035882;28;20083;-88
2022/06/07 05:50:13;;;;;;;2.60;1.67;;;;;;;;;;5020595;28;20087;-88
2022/06/07 05:52:40;;;;;;;2.85;1.70;;;;;;;;;;5018803;28;20036;-88
2022/06/07 05:55:07;;;;;;;3.05;1.70;;;;;;;;;;5038194;28;20040;-88
2022/06/07 05:57:34;;;;;;;2.03;1.50;;;;;;;;;;5039819;28;20051;-88
2022/06/07 06:00:00;;;;;;;3.45;1.70;;;;;;;;;;5049957;28;20022;-87
2022/06/07 06:02:26;;;;;;;2.20;1.50;;;;;;;;;;5067436;28;20033;-87
2022/06/07 06:04:51;;;;;;;3.58;1.40;;;;;;;;;;5052358;28;20061;-88
2022/06/07 06:07:18;;;;;;;3.42;1.90;;;;;;;;;;5038547;28;20042;-87
2022/06/07 06:12:27;;;;;;;;;;;;;;;;;;5037537;28;20051;-88
2022/06/07 06:14:53;;;;;;;2.20;1.60;;;;;;;;;;5037646;28;20342;-88
2022/06/07 06:17:18;;;;;;;4.28;1.70;;;;;;;;;;5040916;28;20025;-87
2022/06/07 06:19:45;;;;;;;2.15;1.50;;;;;;;;;;5048583;28;20033;-87
2022/06/07 06:22:11;;;;;;;2.15;1.52;;;;;;;;;;5031293;28;20089;-89
2022/06/07 06:24:36;;;;;;;2.90;1.63;;;;;;;;;;5037225;28;20103;-88
2022/06/07 06:27:02;;;;;;;4.28;1.80;;;;;;;;;;5019544;28;20021;-89
2022/06/07 06:29:27;;;;;;;1.30;1.20;;;;;;;;;;5018006;28;20030;-88
2022/06/07 06:31:53;;;;;;;1.90;1.50;;;;;;;;;;5033820;28;20040;-88
2022/06/07 06:34:19;;;;;;;2.28;1.58;;;;;;;;;;5033048;28;20025;-89
2022/06/07 06:36:45;;;;;;;2.35;1.42;;;;;;;;;;5015722;28;20116;-88
2022/06/07 06:39:11;;;;;;;2.17;1.48;;;;;;;;;;5033758;28;20072;-88
2022/06/07 06:41:37;;;;;;;2.35;1.50;;;;;;;;;;4999413;28;20037;-88
2022/06/07 06:44:03;;;;;;;1.95;1.45;;;;;;;;;;5033805;28;20381;-89
2022/06/07 06:46:34;;;;;;;3.88;1.52;;;;;;;;;;5032075;28;20444;-88
2022/06/07 06:49:00;;;;;;;2.88;1.60;;;;;;;;;;5032299;28;20497;-87
2022/06/07 06:51:27;;;;;;;2.58;1.50;;;;;;;;;;5032200;28;20056;-87
2022/06/07 06:53:56;;;;;;;1.90;1.50;;;;;;;;;;5033608;28;20108;-87
2022/06/07 06:56:22;;;;;;;1.52;1.30;;;;;;;;;;5031845;28;20029;-87
2022/06/07 06:58:49;;;;;;;1.85;1.50;;;;;;;;;;5049406;28;20032;-88
2022/06/07 07:01:21;;;;;;;1.50;1.40;;;;;;;;;;5038735;28;20365;-88
2022/06/07 07:03:47;;;;;;;2.17;1.80;;;;;;;;;;5036018;28;20033;-88
2022/06/07 07:06:14;;;;;;;2.75;1.60;;;;;;;;;;5036013;28;20036;-89
2022/06/07 07:08:41;;;;;;;2.00;1.40;;;;;;;;;;5019122;28;20482;-88
2022/06/07 07:11:20;;;;;;;1.60;1.40;;;;;;;;;;5035703;28;20048;-88
2022/06/07 07:13:47;;;;;;;1.50;1.30;;;;;;;;;;5035827;28;20037;-88
2022/06/07 07:16:19;;;;;;;1.85;1.50;;;;;;;;;;5035472;28;20108;-88
2022/06/07 07:18:45;;;;;;;1.70;1.50;;;;;;;;;;5035280;28;20112;-87
2022/06/07 07:21:15;;;;;;;3.25;1.70;;;;;;;;;;5035641;28;20029;-87
2022/06/07 07:23:41;;;;;;;1.63;1.45;;;;;;;;;;5035179;28;20536;-87
2022/06/07 07:26:11;;;;;;;1.88;1.55;;;;;;;;;;5036579;28;20081;-88
2022/06/07 07:28:38;;;;;;;3.08;1.48;;;;;;;;;;5052066;28;20448;-89
2022/06/07 07:31:06;;;;;;;1.98;1.80;;;;;;;;;;5035482;28;20025;-89
2022/06/07 07:33:31;;;;;;;2.72;1.40;;;;;;;;;;5035342;28;20456;-88
2022/06/07 07:35:57;;;;;;;2.15;1.35;;;;;;;;;;5035134;28;20066;-88
2022/06/07 07:38:24;;;;;;;3.13;1.42;;;;;;;;;;5036983;28;20010;-88
2022/06/07 07:40:50;;;;;;;1.45;1.35;;;;;;;;;;5018734;28;20078;-89
2022/06/07 07:43:16;;;;;;;1.40;1.30;;;;;;;;;;5035378;28;20040;-88
2022/06/07 07:45:41;;;;;;;1.50;1.40;;;;;;;;;;5020071;28;20029;-88
2022/06/07 07:48:06;;;;;;;1.40;1.30;;;;;;;;;;5035405;28;20087;-88
2022/06/07 07:50:32;;;;;;;2.08;1.50;;;;;;;;;;5035629;28;20482;-88
2022/06/07 07:52:58;;;;;;;2.45;1.95;;;;;;;;;;5035185;28;20029;-90
2022/06/07 07:55:24;;;;;;;1.55;1.45;;;;;;;;;;5035227;28;20079;-89
2022/06/07 07:57:49;;;;;;;3.08;1.58;;;;;;;;;;5035192;28;20417;-88
2022/06/07 08:00:15;;;;;;;1.50;1.40;;;;;;;;;;5035957;28;20037;-88
2022/06/07 08:02:40;;;;;;;1.70;1.60;;;;;;;;;;5036425;28;20088;-89
2022/06/07 08:05:06;;;;;;;1.42;1.33;;;;;;;;;;5017439;28;20022;-88
2022/06/07 08:07:32;;;;;;;2.83;1.85;;;;;;;;;;5019238;28;20079;-87
2022/06/07 08:10:00;;;;;;;1.95;1.60;;;;;;;;;;5051088;28;20398;-87
2022/06/07 08:12:26;;;;;;;1.67;1.40;;;;;;;;;;5018342;28;20034;-87
2022/06/07 08:14:51;;;;;;;1.27;1.17;;;;;;;;;;5035898;28;20033;-87
2022/06/07 08:17:17;;;;;;;1.92;1.50;;;;;;;;;;5017906;28;20464;-87
2022/06/07 08:19:42;;;;;;;1.85;1.60;;;;;;;;;;5039658;28;20045;-86
2022/06/07 08:22:09;;;;;;;1.50;1.20;;;;;;;;;;5025118;28;20049;-88
2022/06/07 08:24:35;;;;;;;2.13;1.35;;;;;;;;;;5052810;28;20046;-87
2022/06/07 08:27:00;;;;;;;2.22;1.70;;;;;;;;;;5022424;28;20022;-87
2022/06/07 08:29:26;;;;;;;1.50;1.40;;;;;;;;;;5035937;28;20457;-87
2022/06/07 08:31:51;;;;;;;2.97;1.38;;;;;;;;;;5034183;28;20029;-86
2022/06/07 08:39:45;;;;;;;1.77;1.50;;;;;;;;;;5035838;28;19919;-87
2022/06/07 08:42:16;;;;;;;1.60;1.50;;;;;;;;;;5040001;28;20365;-86
2022/06/07 08:44:52;;;;;;;2.40;1.50;;;;;;;;;;5044496;28;20028;-88
2022/06/07 08:47:48;;;;;;;2.95;1.88;;;;;;;;;;5036210;28;20473;-87
2022/06/07 08:50:22;;;;;;;1.42;1.30;;;;;;;;;;5034987;28;20046;-88
2022/06/07 08:52:51;;;;;;;2.30;1.80;;;;;;;;;;5017417;28;20060;-88
2022/06/07 08:55:21;;;;;;;2.40;1.50;;;;;;;;;;5034122;28;20029;-88
2022/06/07 08:57:55;;;;;;;2.25;1.52;;;;;;;;;;5034327;28;20093;-88
2022/06/07 09:00:30;;;;;;;2.03;1.60;;;;;;;;;;5017301;28;20071;-89
2022/06/07 09:03:13;;;;;;;1.90;1.73;;;;;;;;;;5034303;28;20033;-88
2022/06/07 09:05:38;;;;;;;2.03;1.65;;;;;;;;;;5035472;28;20030;-89
2022/06/07 09:08:04;;;;;;;3.90;1.67;;;;;;;;;;5000600;28;20394;-88
2022/06/07 09:13:19;;;;;;;2.47;1.70;;;;;;;;;;5034625;28;20033;-87
2022/06/07 09:15:47;;;;;;;1.70;1.60;;;;;;;;;;5034393;28;20053;-87
2022/06/07 09:18:14;;;;;;;2.45;2.25;;;;;;;;;;5016704;28;20041;-88
2022/06/07 09:20:43;;;;;;;1.80;1.70;;;;;;;;;;5033513;28;20462;-88
2022/06/07 09:23:34;;;;;;;1.60;1.50;;;;;;;;;;5033327;28;20453;-87
2022/06/07 09:26:36;;;;;;;2.05;1.58;;;;;;;;;;5033081;28;20021;-87
2022/06/07 09:29:18;;;;;;;1.73;1.52;;;;;;;;;;4938340;29;20034;-87
2022/06/07 09:31:45;;;;;;;4.40;1.73;;;;;;;;;;4938240;29;20052;-88
2022/06/07 09:34:28;;;;;;;2.40;1.80;;;;;;;;;;4954274;29;20037;-88
2022/06/07 09:36:57;;;;;;;2.13;1.70;;;;;;;;;;4955685;29;20043;-88
2022/06/07 09:39:36;;;;;;;2.53;1.70;;;;;;;;;;4954603;29;20365;-88
2022/06/07 09:42:13;;;;;;;1.60;1.50;;;;;;;;;;4953895;29;20042;-88
2022/06/07 09:44:40;;;;;;;2.55;1.70;;;;;;;;;;4953927;29;20448;-88
2022/06/07 09:47:12;;;;;;;1.80;1.70;;;;;;;;;;4938165;29;20035;-88
2022/06/07 09:49:40;;;;;;;2.45;1.80;;;;;;;;;;4953621;28;20460;-88
2022/06/07 09:52:21;;;;;;;3.67;1.58;;;;;;;;;;4937567;29;20081;-88
2022/06/07 09:54:48;;;;;;;3.92;1.65;;;;;;;;;;4953949;29;20122;-87
2022/06/07 09:57:40;;;;;;;2.05;1.85;;;;;;;;;;4953988;29;20039;-87
2022/06/07 10:00:29;;;;;;;1.73;1.60;;;;;;;;;;4935845;29;20538;-88
2022/06/07 10:03:19;;;;;;;2.92;1.58;;;;;;;;;;4991251;28;20037;-89
2022/06/07 10:06:17;;;;;;;1.92;1.67;;;;;;;;;;5033701;28;20104;-88
2022/06/07 10:09:04;;;;;;;1.70;1.60;;;;;;;;;;5033689;28;20030;-88
2022/06/07 10:11:39;;;;;;;2.70;1.77;;;;;;;;;;5034177;28;20031;-89
2022/06/07 10:14:23;;;;;;;2.30;1.63;;;;;;;;;;5032552;28;20036;-89
2022/06/07 10:17:26;;;;;;;2.08;1.70;;;;;;;;;;5033874;28;20069;-89
2022/06/07 10:19:57;;;;;;;2.17;1.70;;;;;;;;;;5032530;28;20029;-88
2022/06/07 10:22:50;;;;;;;1.92;1.70;;;;;;;;;;5035336;28;20057;-88
2022/06/07 10:25:20;;;;;;;2.40;1.70;;;;;;;;;;5036756;28;20022;-89
2022/06/07 10:28:07;;;;;;;2.13;1.42;;;;;;;;;;5029592;28;20049;-86
2022/06/07 10:30:44;;;;;;;2.85;1.50;;;;;;;;;;5054082;28;20108;-88
2022/06/07 10:33:19;;;;;;;1.98;1.77;;;;;;;;;;5045935;28;20021;-90
2022/06/07 10:35:44;;;;;;;1.85;1.75;;;;;;;;;;5041929;28;20029;-90
2022/06/07 10:38:39;;;;;;;3.75;1.70;;;;;;;;;;5040716;28;20378;-89
2022/06/07 10:41:29;;;;;;;1.70;1.60;;;;;;;;;;5039430;28;20021;-90
2022/06/07 10:44:20;;;;;;;1.60;1.48;;;;;;;;;;5040443;28;20056;-89
2022/06/07 10:46:46;;;;;;;2.20;1.50;;;;;;;;;;5038334;28;20030;-91
2022/06/07 10:49:45;;;;;;;10.65;1.83;;;;;;;;;;5039339;28;20029;-88
2022/06/07 10:52:31;;;;;;;4.43;1.60;;;;;;;;;;5023560;28;20025;-89
2022/06/07 10:55:08;;;;;;;2.95;1.70;;;;;;;;;;5031171;28;20032;-88
2022/06/07 10:57:43;;;;;;;4.60;2.15;;;;;;;;;;5056075;28;20029;-86
2022/06/07 11:00:19;;;;;;;3.55;2.20;;;;;;;;;;5038743;28;20045;-88
2022/06/07 11:03:20;;;;;;;3.40;2.13;;;;;;;;;;5054534;28;20021;-88
2022/06/07 11:11:33;;;;;;;3.80;2.97;;;;;;;;;;5053846;28;20105;-87
2022/06/07 11:14:16;;;;;;;4.13;2.55;;;;;;;;;;5052618;28;20028;-87
2022/06/07 11:16:50;;;;;;;4.78;2.60;;;;;;;;;;5055056;28;20045;-87
2022/06/07 11:19:15;;;;;;;;;;;;;;;;;;5047226;28;20040;-88
2022/06/07 11:21:47;;;;;;;4.00;2.77;;;;;;;;;;5022720;28;19913;-83
2022/06/07 11:24:45;;;;;;;4.88;2.50;;;;;;;;;;5036074;28;20682;-83
2022/06/07 11:27:17;;;;;;;3.05;2.20;;;;;;;;;;5003266;28;20505;-85
2022/06/07 11:29:43;;;;;;;4.63;2.15;;;;;;;;;;5035787;28;20036;-85
2022/06/07 11:32:36;;;;;;;4.65;2.25;;;;;;;;;;5035134;28;20477;-83
2022/06/07 11:35:39;;;;;;;3.22;2.08;;;;;;;;;;5036594;28;20029;-84
2022/06/07 11:38:22;;;;;;;2.95;2.20;;;;;;;;;;5043119;28;20469;-86
2022/06/07 11:40:48;;;;;;;3.10;2.03;;;;;;;;;;4970104;28;20086;-85
2022/06/07 11:43:52;;;;;;;4.60;2.15;;;;;;;;;;4983707;28;20521;-84
2022/06/07 11:46:28;;;;;;;6.00;2.70;;;;;;;;;;5004962;28;20026;-86
2022/06/07 11:48:54;;;;;;;3.50;2.30;;;;;;;;;;4992216;28;20081;-86
2022/06/07 11:51:21;;;;;;;2.83;2.33;;;;;;;;;;5000887;28;20038;-85
2022/06/07 11:53:56;;;;;;;3.38;2.67;;;;;;;;;;4966943;28;20554;-84
2022/06/07 11:56:44;;;;;;;4.45;2.47;;;;;;;;;;4977829;28;20506;-86
2022/06/07 11:59:18;;;;;;;3.35;2.13;;;;;;;;;;4958702;28;20390;-86
2022/06/07 12:02:07;;;;;;;3.10;2.42;;;;;;;;;;4976540;28;20034;-86
2022/06/07 12:04:54;;;;;;;2.42;2.22;;;;;;;;;;4981647;28;20034;-86
2022/06/07 12:07:51;;;;;;;3.90;2.50;;;;;;;;;;4962859;28;20050;-86
2022/06/07 12:10:16;;;;;;;2.92;2.20;;;;;;;;;;4974377;28;20057;-84
2022/06/07 12:12:41;;;;;;;5.70;2.30;;;;;;;;;;4990023;28;20113;-85
2022/06/07 12:15:16;;;;;;;2.80;2.10;;;;;;;;;;4987618;28;20282;-86
2022/06/07 12:17:59;;;;;;;3.00;2.45;;;;;;;;;;5008148;28;20595;-84
2022/06/07 12:20:35;;;;;;;2.80;2.47;;;;;;;;;;5004048;28;20023;-85
2022/06/07 12:23:24;;;;;;;2.55;2.22;;;;;;;;;;4991222;28;20105;-84
2022/06/07 12:25:59;;;;;;;2.30;2.10;;;;;;;;;;4975170;28;20049;-84
2022/06/07 12:28:31;;;;;;;4.10;2.60;;;;;;;;;;4982897;28;20023;-85
2022/06/07 12:30:57;;;;;;;4.63;2.42;;;;;;;;;;4997579;28;20038;-86
2022/06/07 12:33:24;;;;;;;2.78;2.20;;;;;;;;;;4984616;28;20030;-85
2022/06/07 12:36:00;;;;;;;4.22;2.13;;;;;;;;;;5000194;28;20073;-85
2022/06/07 12:38:28;;;;;;;3.00;2.50;;;;;;;;;;4987976;28;20494;-85
2022/06/07 12:41:00;;;;;;;2.85;2.58;;;;;;;;;;4973830;28;20091;-85
2022/06/07 12:43:39;;;;;;;3.60;2.58;;;;;;;;;;4991074;28;20505;-86
2022/06/07 12:46:17;;;;;;;3.00;2.40;;;;;;;;;;5006436;28;20027;-85
2022/06/07 12:48:42;;;;;;;3.35;2.25;;;;;;;;;;5006322;28;20079;-85
2022/06/07 12:51:37;;;;;;;4.25;2.20;;;;;;;;;;4982033;28;20066;-84
2022/06/07 12:54:16;;;;;;;2.55;2.20;;;;;;;;;;4992197;28;20384;-86
2022/06/07 12:56:43;;;;;;;3.53;2.38;;;;;;;;;;4994473;28;20358;-86
2022/06/07 12:59:34;;;;;;;5.07;2.53;;;;;;;;;;4981642;28;20095;-86
2022/06/07 13:02:00;;;;;;;3.38;2.38;;;;;;;;;;4978809;28;20029;-85
2022/06/07 13:04:36;;;;;;;4.30;2.20;;;;;;;;;;4989901;28;20026;-85
2022/06/07 13:07:23;;;;;;;4.28;2.05;;;;;;;;;;4987260;28;20022;-86
2022/06/07 13:09:53;;;;;;;2.22;1.95;;;;;;;;;;5002973;28;20181;-87
2022/06/07 13:12:43;;;;;;;2.90;2.28;;;;;;;;;;4990312;28;20033;-88
2022/06/07 13:15:14;;;;;;;4.38;2.05;;;;;;;;;;4975315;28;20038;-87
2022/06/07 13:18:11;;;;;;;3.80;2.08;;;;;;;;;;4982337;28;20699;-88
2022/06/07 13:20:41;;;;;;;2.28;1.85;;;;;;;;;;4975631;28;20057;-87
2022/06/07 13:23:28;;;;;;;2.40;1.90;;;;;;;;;;5006921;28;20037;-87
2022/06/07 13:26:08;;;;;;;2.70;2.00;;;;;;;;;;5007038;28;20488;-87
2022/06/07 13:28:35;;;;;;;2.78;1.92;;;;;;;;;;5004994;28;20031;-86
2022/06/07 13:31:00;;;;;;;3.97;2.03;;;;;;;;;;4997156;28;20482;-86
2022/06/07 13:33:29;;;;;;;2.28;1.90;;;;;;;;;;4981549;28;20080;-87
2022/06/07 13:36:00;;;;;;;1.90;1.80;;;;;;;;;;5003669;28;20088;-87
2022/06/07 13:38:31;;;;;;;2.20;1.83;;;;;;;;;;4984384;28;20390;-87
2022/06/07 13:41:01;;;;;;;1.92;1.73;;;;;;;;;;4995025;28;20026;-86
2022/06/07 13:43:27;;;;;;;3.67;2.05;;;;;;;;;;5009976;28;20026;-86
2022/06/07 13:45:53;;;;;;;2.13;1.88;;;;;;;;;;4993641;28;20165;-86
2022/06/07 13:48:21;;;;;;;5.85;2.20;;;;;;;;;;4993150;28;20053;-87
2022/06/07 13:54:00;;;;;;;3.88;2.20;;;;;;;;;;4993646;28;20033;-85
2022/06/07 13:56:26;;;;;;;3.70;2.30;;;;;;;;;;4994089;28;20125;-85
2022/06/07 13:58:54;;;;;;;2.80;2.10;;;;;;;;;;4993262;28;20028;-84
2022/06/07 14:01:35;;;;;;;3.65;2.00;;;;;;;;;;5010266;28;20050;-85
2022/06/07 14:04:04;;;;;;;4.38;2.20;;;;;;;;;;5009019;28;20029;-86
2022/06/07 14:06:35;;;;;;;2.55;1.83;;;;;;;;;;5009872;28;20490;-83
2022/06/07 14:09:05;;;;;;;3.88;1.95;;;;;;;;;;5010475;28;20069;-86
2022/06/07 14:11:32;;;;;;;3.42;1.90;;;;;;;;;;4993124;28;20018;-86
2022/06/07 14:13:57;;;;;;;2.03;1.88;;;;;;;;;;4995574;28;20054;-86
2022/06/07 14:16:34;;;;;;;2.38;2.15;;;;;;;;;;4993929;28;20030;-84
2022/06/07 14:19:06;;;;;;;4.38;1.70;;;;;;;;;;4993579;28;20498;-85
2022/06/07 14:21:31;;;;;;;1.70;1.60;;;;;;;;;;4993145;28;20041;-85
2022/06/07 14:23:57;;;;;;;2.35;1.80;;;;;;;;;;5009840;28;20393;-84
2022/06/07 14:26:23;;;;;;;2.75;2.15;;;;;;;;;;5012475;28;20039;-84
2022/06/07 14:28:48;;;;;;;2.10;1.80;;;;;;;;;;4997732;28;20031;-84
2022/06/07 14:31:19;;;;;;;3.67;1.70;;;;;;;;;;4997471;28;20105;-85
2022/06/07 14:33:45;;;;;;;2.10;1.80;;;;;;;;;;5011769;28;20475;-84
2022/06/07 14:36:12;;;;;;;3.00;1.70;;;;;;;;;;5012236;28;20038;-84
2022/06/07 14:38:37;;;;;;;1.77;1.67;;;;;;;;;;5012303;28;20033;-84
2022/06/07 14:41:03;;;;;;;1.85;1.70;;;;;;;;;;5004391;28;20026;-84
2022/06/07 14:43:28;;;;;;;1.80;1.70;;;;;;;;;;5000037;28;20145;-85
2022/06/07 14:46:01;;;;;;;3.88;2.05;;;;;;;;;;4998542;28;20049;-83
2022/06/07 14:48:40;;;;;;;5.07;1.95;;;;;;;;;;5011920;28;20363;-84
2022/06/07 14:51:30;;;;;;;3.58;1.85;;;;;;;;;;4998274;28;20105;-82
2022/06/07 14:53:59;;;;;;;3.67;1.90;;;;;;;;;;5012169;28;20023;-87
2022/06/07 14:56:30;;;;;;;6.35;2.47;;;;;;;;;;4995917;28;20525;-81
2022/06/07 14:58:56;;;;;;;4.13;1.88;;;;;;;;;;4995539;28;20031;-86
2022/06/07 15:01:24;;;;;;;4.57;2.30;;;;;;;;;;5011837;28;20027;-84
2022/06/07 15:03:50;;;;;;;8.82;2.53;;;;;;;;;;5000847;28;20018;-84
2022/06/07 15:06:29;;;;;;;5.03;2.20;;;;;;;;;;5003856;28;20100;-84
2022/06/07 15:08:54;;;;;;;9.85;2.10;;;;;;;;;;5007495;28;20033;-87
2022/06/07 15:11:40;;;;;;;3.47;2.63;;;;;;;;;;5032607;28;20108;-88
2022/06/07 15:14:06;;;;;;;8.85;2.20;;;;;;;;;;5000159;28;20073;-90
2022/06/07 15:16:33;;;;;;;5.40;2.30;;;;;;;;;;5020407;28;20034;-88
2022/06/07 15:19:00;;;;;;;3.30;2.42;;;;;;;;;;5019519;28;20089;-86
2022/06/07 15:21:26;;;;;;;3.20;2.28;;;;;;;;;;5035463;28;20133;-86
2022/06/07 15:23:53;;;;;;;2.63;2.25;;;;;;;;;;5020850;28;20030;-84
2022/06/07 15:26:25;;;;;;;4.18;2.25;;;;;;;;;;5035217;28;20037;-86
2022/06/07 15:28:51;;;;;;;4.18;1.90;;;;;;;;;;5035092;28;20026;-86
2022/06/07 15:31:19;;;;;;;4.80;2.58;;;;;;;;;;5034703;28;20034;-86